sensor_id;sensor_type;location;lat;lon;timestamp;pressure;altitude;pressure_sealevel;temperature;humidity
18436;BME280;9346;52.006;4.720;2023-02-11T00:01:10;103329.16;;;8.14;100.00
18436;BME280;9346;52.006;4.720;2023-02-11T00:03:38;103329.16;;;8.14;100.00
18436;BME280;9346;52.006;4.720;2023-02-11T00:06:06;103334.66;;;8.14;100.00
18436;BME280;9346;52.006;4.720;2023-02-11T00:08:35;103328.13;;;8.15;100.00
18436;BME280;9346;52.006;4.720;2023-02-11T00:11:04;103322.63;;;8.15;100.00
18436;BME280;9346;52.006;4.720;2023-02-11T00:13:31;103308.03;;;8.15;100.00
18436;BME280;9346;52.006;4.720;2023-02-11T00:15:58;103316.09;;;8.16;100.00
18436;BME280;9346;52.006;4.720;2023-02-11T00:18:25;103320.72;;;8.16;100.00
18436;BME280;9346;52.006;4.720;2023-02-11T00:20:52;103322.44;;;8.17;100.00
18436;BME280;9346;52.006;4.720;2023-02-11T00:23:19;103312.47;;;8.16;100.00
18436;BME280;9346;52.006;4.720;2023-02-11T00:25:46;103300.69;;;8.15;100.00
18436;BME280;9346;52.006;4.720;2023-02-11T00:28:15;103309.09;;;8.14;100.00
18436;BME280;9346;52.006;4.720;2023-02-11T00:30:42;103306.38;;;8.14;100.00
18436;BME280;9346;52.006;4.720;2023-02-11T00:33:08;103302.09;;;8.11;100.00
18436;BME280;9346;52.006;4.720;2023-02-11T00:35:36;103296.41;;;8.13;100.00
18436;BME280;9346;52.006;4.720;2023-02-11T00:38:03;103294.53;;;8.13;100.00
18436;BME280;9346;52.006;4.720;2023-02-11T00:40:30;103281.84;;;8.12;100.00
18436;BME280;9346;52.006;4.720;2023-02-11T00:42:57;103280.78;;;8.13;100.00
18436;BME280;9346;52.006;4.720;2023-02-11T00:45:25;103292.63;;;8.14;100.00
18436;BME280;9346;52.006;4.720;2023-02-11T00:47:54;103291.56;;;8.15;100.00
18436;BME280;9346;52.006;4.720;2023-02-11T00:50:22;103287.97;;;8.14;100.00
18436;BME280;9346;52.006;4.720;2023-02-11T00:52:49;103296.22;;;8.14;100.00
18436;BME280;9346;52.006;4.720;2023-02-11T00:55:16;103298.31;;;8.12;100.00
18436;BME280;9346;52.006;4.720;2023-02-11T00:57:43;103303.63;;;8.14;100.00
18436;BME280;9346;52.006;4.720;2023-02-11T01:00:12;103301.69;;;8.14;100.00
18436;BME280;9346;52.006;4.720;2023-02-11T01:02:41;103305.50;;;8.13;100.00
18436;BME280;9346;52.006;4.720;2023-02-11T01:05:07;103310.13;;;8.13;100.00
18436;BME280;9346;52.006;4.720;2023-02-11T01:07:34;103317.34;;;8.14;100.00
18436;BME280;9346;52.006;4.720;2023-02-11T01:10:01;103318.16;;;8.14;100.00
18436;BME280;9346;52.006;4.720;2023-02-11T01:12:28;103319.03;;;8.15;100.00
18436;BME280;9346;52.006;4.720;2023-02-11T01:14:55;103311.00;;;8.13;100.00
18436;BME280;9346;52.006;4.720;2023-02-11T01:17:22;103301.69;;;8.14;100.00
18436;BME280;9346;52.006;4.720;2023-02-11T01:19:51;103281.44;;;8.15;100.00
18436;BME280;9346;52.006;4.720;2023-02-11T01:22:18;103277.84;;;8.15;100.00
18436;BME280;9346;52.006;4.720;2023-02-11T01:24:45;103274.25;;;8.14;100.00
18436;BME280;9346;52.006;4.720;2023-02-11T01:27:12;103272.56;;;8.13;100.00
18436;BME280;9346;52.006;4.720;2023-02-11T01:29:39;103275.50;;;8.12;100.00
18436;BME280;9346;52.006;4.720;2023-02-11T01:32:06;103279.94;;;8.13;100.00
18436;BME280;9346;52.006;4.720;2023-02-11T01:34:33;103280.78;;;8.13;100.00
18436;BME280;9346;52.006;4.720;2023-02-11T01:37:01;103267.06;;;8.13;100.00
18436;BME280;9346;52.006;4.720;2023-02-11T01:39:31;103264.31;;;8.13;100.00
18436;BME280;9346;52.006;4.720;2023-02-11T01:41:59;103281.84;;;8.12;100.00
18436;BME280;9346;52.006;4.720;2023-02-11T01:44:28;103270.41;;;8.09;100.00
18436;BME280;9346;52.006;4.720;2023-02-11T01:46:56;103271.25;;;8.09;100.00
18436;BME280;9346;52.006;4.720;2023-02-11T01:49:25;103265.78;;;8.09;100.00
18436;BME280;9346;52.006;4.720;2023-02-11T01:51:56;103266.16;;;8.06;100.00
18436;BME280;9346;52.006;4.720;2023-02-11T01:54:29;103275.47;;;8.05;100.00
18436;BME280;9346;52.006;4.720;2023-02-11T01:57:17;103274.34;;;8.00;100.00
18436;BME280;9346;52.006;4.720;2023-02-11T01:59:56;103287.25;;;7.99;100.00
18436;BME280;9346;52.006;4.720;2023-02-11T02:02:30;103296.28;;;8.00;100.00
18436;BME280;9346;52.006;4.720;2023-02-11T02:05:05;103293.75;;;7.98;100.00
18436;BME280;9346;52.006;4.720;2023-02-11T02:07:38;103282.53;;;7.93;100.00
18436;BME280;9346;52.006;4.720;2023-02-11T02:10:13;103289.28;;;7.91;100.00
18436;BME280;9346;52.006;4.720;2023-02-11T02:12:42;103276.97;;;7.87;100.00
18436;BME280;9346;52.006;4.720;2023-02-11T02:15:24;103269.81;;;7.86;100.00
18436;BME280;9346;52.006;4.720;2023-02-11T02:17:57;103265.56;;;7.83;100.00
18436;BME280;9346;52.006;4.720;2023-02-11T02:23:39;103267.19;;;7.78;100.00
18436;BME280;9346;52.006;4.720;2023-02-11T02:32:38;103284.19;;;7.67;100.00
18436;BME280;9346;52.006;4.720;2023-02-11T02:35:20;103285.44;;;7.64;100.00
18436;BME280;9346;52.006;4.720;2023-02-11T02:37:55;103283.94;;;7.62;100.00
18436;BME280;9346;52.006;4.720;2023-02-11T02:40:26;103288.97;;;7.58;100.00
18436;BME280;9346;52.006;4.720;2023-02-11T02:42:55;103292.28;;;7.54;100.00
18436;BME280;9346;52.006;4.720;2023-02-11T02:45:23;103303.84;;;7.49;100.00
18436;BME280;9346;52.006;4.720;2023-02-11T02:47:53;103302.63;;;7.37;100.00
18436;BME280;9346;52.006;4.720;2023-02-11T02:50:23;103291.91;;;7.21;100.00
18436;BME280;9346;52.006;4.720;2023-02-11T02:53:04;103293.09;;;7.12;100.00
18436;BME280;9346;52.006;4.720;2023-02-11T02:55:43;103281.47;;;7.10;100.00
18436;BME280;9346;52.006;4.720;2023-02-11T03:01:14;103257.66;;;7.11;100.00
18436;BME280;9346;52.006;4.720;2023-02-11T03:03:53;103262.66;;;7.07;100.00
18436;BME280;9346;52.006;4.720;2023-02-11T03:06:31;103275.69;;;7.05;100.00
18436;BME280;9346;52.006;4.720;2023-02-11T03:09:03;103279.41;;;6.98;100.00
18436;BME280;9346;52.006;4.720;2023-02-11T03:11:33;103284.34;;;6.88;100.00
18436;BME280;9346;52.006;4.720;2023-02-11T03:14:04;103285.00;;;6.75;100.00
18436;BME280;9346;52.006;4.720;2023-02-11T03:16:32;103278.13;;;6.64;100.00
18436;BME280;9346;52.006;4.720;2023-02-11T03:19:10;103277.56;;;6.54;100.00
18436;BME280;9346;52.006;4.720;2023-02-11T03:21:39;103262.06;;;6.47;100.00
18436;BME280;9346;52.006;4.720;2023-02-11T03:24:12;103268.59;;;6.46;100.00
18436;BME280;9346;52.006;4.720;2023-02-11T03:26:43;103270.09;;;6.48;100.00
18436;BME280;9346;52.006;4.720;2023-02-11T03:29:17;103276.91;;;6.52;100.00
18436;BME280;9346;52.006;4.720;2023-02-11T03:31:55;103271.81;;;6.49;100.00
18436;BME280;9346;52.006;4.720;2023-02-11T03:34:28;103273.69;;;6.49;100.00
18436;BME280;9346;52.006;4.720;2023-02-11T03:37:00;103270.28;;;6.47;100.00
18436;BME280;9346;52.006;4.720;2023-02-11T03:39:34;103263.88;;;6.40;100.00
18436;BME280;9346;52.006;4.720;2023-02-11T03:42:03;103271.81;;;6.35;100.00
18436;BME280;9346;52.006;4.720;2023-02-11T03:44:35;103274.38;;;6.36;100.00
18436;BME280;9346;52.006;4.720;2023-02-11T03:47:06;103269.72;;;6.37;100.00
18436;BME280;9346;52.006;4.720;2023-02-11T03:49:38;103272.25;;;6.38;100.00
18436;BME280;9346;52.006;4.720;2023-02-11T03:52:07;103258.13;;;6.35;100.00
18436;BME280;9346;52.006;4.720;2023-02-11T03:54:37;103256.78;;;6.31;100.00
18436;BME280;9346;52.006;4.720;2023-02-11T03:57:06;103246.59;;;6.25;100.00
18436;BME280;9346;52.006;4.720;2023-02-11T03:59:49;103246.31;;;6.20;100.00
18436;BME280;9346;52.006;4.720;2023-02-11T04:02:16;103258.84;;;6.14;100.00
18436;BME280;9346;52.006;4.720;2023-02-11T04:04:45;103263.19;;;6.09;100.00
18436;BME280;9346;52.006;4.720;2023-02-11T04:07:12;103260.84;;;6.06;100.00
18436;BME280;9346;52.006;4.720;2023-02-11T04:09:39;103260.16;;;6.04;100.00
18436;BME280;9346;52.006;4.720;2023-02-11T04:12:06;103256.38;;;6.05;100.00
18436;BME280;9346;52.006;4.720;2023-02-11T04:14:34;103254.31;;;6.07;100.00
18436;BME280;9346;52.006;4.720;2023-02-11T04:17:01;103263.19;;;6.09;100.00
18436;BME280;9346;52.006;4.720;2023-02-11T04:19:28;103269.31;;;6.11;100.00
18436;BME280;9346;52.006;4.720;2023-02-11T04:21:57;103264.53;;;6.13;100.00
18436;BME280;9346;52.006;4.720;2023-02-11T04:24:24;103256.31;;;6.13;100.00
18436;BME280;9346;52.006;4.720;2023-02-11T04:26:51;103254.63;;;6.12;100.00
18436;BME280;9346;52.006;4.720;2023-02-11T04:29:18;103262.53;;;6.07;100.00
18436;BME280;9346;52.006;4.720;2023-02-11T04:31:46;103268.72;;;6.01;100.00
18436;BME280;9346;52.006;4.720;2023-02-11T04:34:13;103265.91;;;5.94;100.00
18436;BME280;9346;52.006;4.720;2023-02-11T04:36:40;103266.28;;;5.91;100.00
18436;BME280;9346;52.006;4.720;2023-02-11T04:39:09;103263.34;;;5.93;100.00
18436;BME280;9346;52.006;4.720;2023-02-11T04:41:36;103256.47;;;5.97;100.00
18436;BME280;9346;52.006;4.720;2023-02-11T04:44:04;103257.78;;;6.01;100.00
18436;BME280;9346;52.006;4.720;2023-02-11T04:46:31;103254.88;;;6.02;100.00
18436;BME280;9346;52.006;4.720;2023-02-11T04:48:58;103265.81;;;6.02;100.00
18436;BME280;9346;52.006;4.720;2023-02-11T04:51:25;103256.84;;;5.94;100.00
18436;BME280;9346;52.006;4.720;2023-02-11T04:53:52;103253.97;;;5.87;100.00
18436;BME280;9346;52.006;4.720;2023-02-11T04:56:20;103253.00;;;5.80;100.00
18436;BME280;9346;52.006;4.720;2023-02-11T04:58:47;103258.84;;;5.77;100.00
18436;BME280;9346;52.006;4.720;2023-02-11T05:01:15;103259.00;;;5.76;100.00
18436;BME280;9346;52.006;4.720;2023-02-11T05:03:42;103258.19;;;5.75;100.00
18436;BME280;9346;52.006;4.720;2023-02-11T05:06:10;103246.88;;;5.78;100.00
18436;BME280;9346;52.006;4.720;2023-02-11T05:08:37;103254.75;;;5.81;100.00
18436;BME280;9346;52.006;4.720;2023-02-11T05:11:04;103256.25;;;5.84;100.00
18436;BME280;9346;52.006;4.720;2023-02-11T05:13:33;103263.78;;;5.82;100.00
18436;BME280;9346;52.006;4.720;2023-02-11T05:16:01;103266.03;;;5.78;100.00
18436;BME280;9346;52.006;4.720;2023-02-11T05:18:28;103267.22;;;5.76;100.00
18436;BME280;9346;52.006;4.720;2023-02-11T05:20:55;103266.06;;;5.70;100.00
18436;BME280;9346;52.006;4.720;2023-02-11T05:23:22;103264.56;;;5.68;100.00
18436;BME280;9346;52.006;4.720;2023-02-11T05:25:49;103274.84;;;5.66;100.00
18436;BME280;9346;52.006;4.720;2023-02-11T05:28:15;103277.94;;;5.63;100.00
18436;BME280;9346;52.006;4.720;2023-02-11T05:30:44;103282.94;;;5.59;100.00
18436;BME280;9346;52.006;4.720;2023-02-11T05:33:11;103291.88;;;5.53;100.00
18436;BME280;9346;52.006;4.720;2023-02-11T05:35:38;103296.19;;;5.48;100.00
18436;BME280;9346;52.006;4.720;2023-02-11T05:38:05;103294.00;;;5.43;100.00
18436;BME280;9346;52.006;4.720;2023-02-11T05:40:31;103297.75;;;5.42;100.00
18436;BME280;9346;52.006;4.720;2023-02-11T05:42:58;103291.44;;;5.42;100.00
18436;BME280;9346;52.006;4.720;2023-02-11T05:45:25;103283.88;;;5.44;100.00
18436;BME280;9346;52.006;4.720;2023-02-11T05:47:55;103290.03;;;5.46;100.00
18436;BME280;9346;52.006;4.720;2023-02-11T05:50:22;103285.88;;;5.50;100.00
18436;BME280;9346;52.006;4.720;2023-02-11T05:52:49;103289.31;;;5.52;100.00
18436;BME280;9346;52.006;4.720;2023-02-11T05:55:16;103286.56;;;5.52;100.00
18436;BME280;9346;52.006;4.720;2023-02-11T05:57:43;103286.75;;;5.50;100.00
18436;BME280;9346;52.006;4.720;2023-02-11T06:00:11;103281.78;;;5.54;100.00
18436;BME280;9346;52.006;4.720;2023-02-11T06:02:39;103287.25;;;5.54;100.00
18436;BME280;9346;52.006;4.720;2023-02-11T06:05:08;103280.94;;;5.53;100.00
18436;BME280;9346;52.006;4.720;2023-02-11T06:07:36;103279.88;;;5.54;100.00
18436;BME280;9346;52.006;4.720;2023-02-11T06:10:03;103289.13;;;5.53;100.00
18436;BME280;9346;52.006;4.720;2023-02-11T06:12:29;103288.25;;;5.53;100.00
18436;BME280;9346;52.006;4.720;2023-02-11T06:14:56;103287.63;;;5.51;100.00
18436;BME280;9346;52.006;4.720;2023-02-11T06:17:23;103293.09;;;5.51;100.00
18436;BME280;9346;52.006;4.720;2023-02-11T06:19:50;103286.75;;;5.50;100.00
18436;BME280;9346;52.006;4.720;2023-02-11T06:22:19;103282.16;;;5.51;100.00
18436;BME280;9346;52.006;4.720;2023-02-11T06:24:45;103297.31;;;5.53;100.00
18436;BME280;9346;52.006;4.720;2023-02-11T06:27:12;103286.88;;;5.57;100.00
18436;BME280;9346;52.006;4.720;2023-02-11T06:29:39;103283.94;;;5.58;100.00
18436;BME280;9346;52.006;4.720;2023-02-11T06:32:06;103288.59;;;5.58;100.00
18436;BME280;9346;52.006;4.720;2023-02-11T06:34:33;103299.53;;;5.58;100.00
18436;BME280;9346;52.006;4.720;2023-02-11T06:37:00;103294.06;;;5.58;100.00
18436;BME280;9346;52.006;4.720;2023-02-11T06:39:28;103300.16;;;5.60;100.00
18436;BME280;9346;52.006;4.720;2023-02-11T06:41:55;103298.28;;;5.60;100.00
18436;BME280;9346;52.006;4.720;2023-02-11T06:44:22;103305.28;;;5.63;100.00
18436;BME280;9346;52.006;4.720;2023-02-11T06:46:49;103305.28;;;5.63;100.00
18436;BME280;9346;52.006;4.720;2023-02-11T06:49:16;103299.25;;;5.67;100.00
18436;BME280;9346;52.006;4.720;2023-02-11T06:51:43;103300.97;;;5.68;100.00
18436;BME280;9346;52.006;4.720;2023-02-11T06:54:11;103307.28;;;5.69;100.00
18436;BME280;9346;52.006;4.720;2023-02-11T06:56:40;103315.31;;;5.70;100.00
18436;BME280;9346;52.006;4.720;2023-02-11T06:59:07;103314.47;;;5.70;100.00
18436;BME280;9346;52.006;4.720;2023-02-11T07:01:34;103321.63;;;5.71;100.00
18436;BME280;9346;52.006;4.720;2023-02-11T07:04:01;103315.47;;;5.69;100.00
18436;BME280;9346;52.006;4.720;2023-02-11T07:06:28;103311.75;;;5.70;100.00
18436;BME280;9346;52.006;4.720;2023-02-11T07:08:55;103307.78;;;5.72;100.00
18436;BME280;9346;52.006;4.720;2023-02-11T07:11:24;103308.94;;;5.78;100.00
18436;BME280;9346;52.006;4.720;2023-02-11T07:13:55;103316.09;;;5.79;100.00
18436;BME280;9346;52.006;4.720;2023-02-11T07:16:22;103316.09;;;5.79;100.00
18436;BME280;9346;52.006;4.720;2023-02-11T07:18:49;103311.28;;;5.81;100.00
18436;BME280;9346;52.006;4.720;2023-02-11T07:21:18;103319.50;;;5.81;100.00
18436;BME280;9346;52.006;4.720;2023-02-11T07:23:46;103326.69;;;5.82;100.00
18436;BME280;9346;52.006;4.720;2023-02-11T07:26:16;103323.59;;;5.85;100.00
18436;BME280;9346;52.006;4.720;2023-02-11T07:28:43;103314.16;;;5.87;100.00
18436;BME280;9346;52.006;4.720;2023-02-11T07:31:13;103312.28;;;5.88;100.00
18436;BME280;9346;52.006;4.720;2023-02-11T07:33:41;103322.88;;;5.91;100.00
18436;BME280;9346;52.006;4.720;2023-02-11T07:36:11;103330.88;;;5.92;100.00
18436;BME280;9346;52.006;4.720;2023-02-11T07:38:39;103327.97;;;5.94;100.00
18436;BME280;9346;52.006;4.720;2023-02-11T07:41:11;103335.13;;;5.95;100.00
18436;BME280;9346;52.006;4.720;2023-02-11T07:43:39;103334.78;;;5.98;100.00
18436;BME280;9346;52.006;4.720;2023-02-11T07:46:08;103328.09;;;6.00;100.00
18436;BME280;9346;52.006;4.720;2023-02-11T07:48:37;103321.59;;;6.01;100.00
18436;BME280;9346;52.006;4.720;2023-02-11T07:51:06;103332.16;;;6.04;100.00
18436;BME280;9346;52.006;4.720;2023-02-11T07:53:33;103343.56;;;6.08;100.00
18436;BME280;9346;52.006;4.720;2023-02-11T07:56:01;103345.13;;;6.10;100.00
18436;BME280;9346;52.006;4.720;2023-02-11T07:58:28;103338.41;;;6.13;100.00
18436;BME280;9346;52.006;4.720;2023-02-11T08:00:59;103341.31;;;6.11;100.00
18436;BME280;9346;52.006;4.720;2023-02-11T08:03:26;103343.88;;;6.13;100.00
18436;BME280;9346;52.006;4.720;2023-02-11T08:05:55;103345.94;;;6.11;100.00
18436;BME280;9346;52.006;4.720;2023-02-11T08:08:22;103348.31;;;6.14;100.00
18436;BME280;9346;52.006;4.720;2023-02-11T08:10:51;103353.78;;;6.14;100.00
18436;BME280;9346;52.006;4.720;2023-02-11T08:13:18;103353.41;;;6.17;100.00
18436;BME280;9346;52.006;4.720;2023-02-11T08:15:44;103355.09;;;6.18;100.00
18436;BME280;9346;52.006;4.720;2023-02-11T08:18:11;103353.72;;;6.22;100.00
18436;BME280;9346;52.006;4.720;2023-02-11T08:20:38;103359.84;;;6.24;100.00
18436;BME280;9346;52.006;4.720;2023-02-11T08:23:06;103363.06;;;6.27;100.00
18436;BME280;9346;52.006;4.720;2023-02-11T08:25:33;103370.06;;;6.30;100.00
18436;BME280;9346;52.006;4.720;2023-02-11T08:28:00;103369.50;;;6.34;100.00
18436;BME280;9346;52.006;4.720;2023-02-11T08:30:27;103372.91;;;6.36;100.00
18436;BME280;9346;52.006;4.720;2023-02-11T08:32:54;103370.66;;;6.40;100.00
18436;BME280;9346;52.006;4.720;2023-02-11T08:35:22;103373.88;;;6.43;100.00
18436;BME280;9346;52.006;4.720;2023-02-11T08:37:50;103387.00;;;6.48;100.00
18436;BME280;9346;52.006;4.720;2023-02-11T08:40:19;103388.16;;;6.53;100.00
18436;BME280;9346;52.006;4.720;2023-02-11T08:42:46;103382.09;;;6.58;100.00
18436;BME280;9346;52.006;4.720;2023-02-11T08:45:13;103387.84;;;6.63;100.00
18436;BME280;9346;52.006;4.720;2023-02-11T08:47:40;103394.50;;;6.68;100.00
18436;BME280;9346;52.006;4.720;2023-02-11T08:50:07;103390.16;;;6.74;100.00
18436;BME280;9346;52.006;4.720;2023-02-11T08:52:35;103385.81;;;6.79;100.00
18436;BME280;9346;52.006;4.720;2023-02-11T08:55:01;103399.63;;;6.86;100.00
18436;BME280;9346;52.006;4.720;2023-02-11T08:57:31;103397.16;;;6.91;100.00
18436;BME280;9346;52.006;4.720;2023-02-11T08:59:57;103390.06;;;6.97;100.00
18436;BME280;9346;52.006;4.720;2023-02-11T09:02:24;103389.47;;;7.01;100.00
18436;BME280;9346;52.006;4.720;2023-02-11T09:04:51;103390.59;;;7.07;100.00
18436;BME280;9346;52.006;4.720;2023-02-11T09:07:18;103403.38;;;7.14;100.00
18436;BME280;9346;52.006;4.720;2023-02-11T09:09:45;103401.56;;;7.21;100.00
18436;BME280;9346;52.006;4.720;2023-02-11T09:12:12;103405.09;;;7.30;100.00
18436;BME280;9346;52.006;4.720;2023-02-11T09:14:40;103408.56;;;7.38;100.00
18436;BME280;9346;52.006;4.720;2023-02-11T09:17:07;103408.63;;;7.45;100.00
18436;BME280;9346;52.006;4.720;2023-02-11T09:19:34;103408.72;;;7.51;100.00
18436;BME280;9346;52.006;4.720;2023-02-11T09:22:02;103421.28;;;7.60;100.00
18436;BME280;9346;52.006;4.720;2023-02-11T09:24:29;103412.25;;;7.66;100.00
18436;BME280;9346;52.006;4.720;2023-02-11T09:26:55;103417.84;;;7.73;100.00
18436;BME280;9346;52.006;4.720;2023-02-11T09:29:22;103414.53;;;7.77;100.00
18436;BME280;9346;52.006;4.720;2023-02-11T09:31:51;103421.13;;;7.83;100.00
18436;BME280;9346;52.006;4.720;2023-02-11T09:34:17;103417.59;;;7.89;100.00
18436;BME280;9346;52.006;4.720;2023-02-11T09:36:44;103420.59;;;7.94;100.00
18436;BME280;9346;52.006;4.720;2023-02-11T09:39:14;103420.00;;;7.98;100.00
18436;BME280;9346;52.006;4.720;2023-02-11T09:41:53;103424.91;;;8.03;100.00
18436;BME280;9346;52.006;4.720;2023-02-11T09:44:25;103420.72;;;8.07;100.00
18436;BME280;9346;52.006;4.720;2023-02-11T09:46:57;103434.94;;;8.10;100.00
18436;BME280;9346;52.006;4.720;2023-02-11T09:49:32;103428.84;;;8.15;100.00
18436;BME280;9346;52.006;4.720;2023-02-11T09:52:04;103431.22;;;8.18;100.00
18436;BME280;9346;52.006;4.720;2023-02-11T09:54:35;103424.09;;;8.23;100.00
18436;BME280;9346;52.006;4.720;2023-02-11T09:57:03;103418.22;;;8.26;100.00
18436;BME280;9346;52.006;4.720;2023-02-11T09:59:31;103425.88;;;8.31;100.00
18436;BME280;9346;52.006;4.720;2023-02-11T10:02:03;103422.72;;;8.34;100.00
18436;BME280;9346;52.006;4.720;2023-02-11T10:04:44;103430.38;;;8.38;100.00
18436;BME280;9346;52.006;4.720;2023-02-11T10:07:20;103438.03;;;8.43;100.00
18436;BME280;9346;52.006;4.720;2023-02-11T10:10:02;103444.44;;;8.50;100.00
18436;BME280;9346;52.006;4.720;2023-02-11T10:12:46;103445.34;;;8.57;100.00
18436;BME280;9346;52.006;4.720;2023-02-11T10:15:23;103453.84;;;8.62;100.00
18436;BME280;9346;52.006;4.720;2023-02-11T10:21:05;103451.41;;;8.73;100.00
18436;BME280;9346;52.006;4.720;2023-02-11T10:23:37;103458.84;;;8.79;100.00
18436;BME280;9346;52.006;4.720;2023-02-11T10:26:11;103464.59;;;8.84;100.00
18436;BME280;9346;52.006;4.720;2023-02-11T10:28:38;103468.22;;;8.91;100.00
18436;BME280;9346;52.006;4.720;2023-02-11T10:31:09;103466.75;;;8.95;100.00
18436;BME280;9346;52.006;4.720;2023-02-11T10:33:42;103473.59;;;8.99;100.00
18436;BME280;9346;52.006;4.720;2023-02-11T10:36:13;103469.19;;;9.05;100.00
18436;BME280;9346;52.006;4.720;2023-02-11T10:38:42;103471.97;;;9.11;100.00
18436;BME280;9346;52.006;4.720;2023-02-11T10:41:09;103472.22;;;9.17;100.00
18436;BME280;9346;52.006;4.720;2023-02-11T10:43:41;103488.78;;;9.23;100.00
18436;BME280;9346;52.006;4.720;2023-02-11T10:46:13;103491.75;;;9.28;100.00
18436;BME280;9346;52.006;4.720;2023-02-11T10:48:43;103494.75;;;9.33;100.00
18436;BME280;9346;52.006;4.720;2023-02-11T10:51:21;103492.03;;;9.40;100.00
18436;BME280;9346;52.006;4.720;2023-02-11T10:53:49;103498.00;;;9.43;100.00
18436;BME280;9346;52.006;4.720;2023-02-11T10:56:22;103495.47;;;9.48;100.00
18436;BME280;9346;52.006;4.720;2023-02-11T10:58:57;103500.16;;;9.54;100.00
18436;BME280;9346;52.006;4.720;2023-02-11T11:01:38;103498.06;;;9.56;100.00
18436;BME280;9346;52.006;4.720;2023-02-11T11:04:26;103504.41;;;9.57;100.00
18436;BME280;9346;52.006;4.720;2023-02-11T11:07:10;103493.63;;;9.62;100.00
18436;BME280;9346;52.006;4.720;2023-02-11T11:09:44;103492.16;;;9.66;100.00
18436;BME280;9346;52.006;4.720;2023-02-11T11:12:24;103488.41;;;9.73;100.00
18436;BME280;9346;52.006;4.720;2023-02-11T11:14:53;103492.22;;;9.79;100.00
18436;BME280;9346;52.006;4.720;2023-02-11T11:17:20;103495.44;;;9.82;100.00
18436;BME280;9346;52.006;4.720;2023-02-11T11:19:47;103493.09;;;9.86;100.00
18436;BME280;9346;52.006;4.720;2023-02-11T11:22:21;103489.09;;;9.88;100.00
18436;BME280;9346;52.006;4.720;2023-02-11T11:24:48;103486.78;;;9.92;100.00
18436;BME280;9346;52.006;4.720;2023-02-11T11:27:21;103490.19;;;9.94;100.00
18436;BME280;9346;52.006;4.720;2023-02-11T11:29:51;103490.38;;;9.99;100.00
18436;BME280;9346;52.006;4.720;2023-02-11T11:32:21;103481.09;;;10.00;100.00
18436;BME280;9346;52.006;4.720;2023-02-11T11:34:50;103486.81;;;10.05;100.00
18436;BME280;9346;52.006;4.720;2023-02-11T11:37:34;103484.34;;;10.10;100.00
18436;BME280;9346;52.006;4.720;2023-02-11T11:40:07;103480.50;;;10.11;100.00
18436;BME280;9346;52.006;4.720;2023-02-11T11:42:35;103479.44;;;10.12;100.00
18436;BME280;9346;52.006;4.720;2023-02-11T11:47:51;103481.38;;;10.18;100.00
18436;BME280;9346;52.006;4.720;2023-02-11T11:50:26;103480.13;;;10.20;100.00
18436;BME280;9346;52.006;4.720;2023-02-11T11:53:02;103477.59;;;10.25;100.00
18436;BME280;9346;52.006;4.720;2023-02-11T11:55:34;103476.75;;;10.31;100.00
18436;BME280;9346;52.006;4.720;2023-02-11T11:58:04;103483.53;;;10.35;100.00
18436;BME280;9346;52.006;4.720;2023-02-11T12:00:41;103483.56;;;10.42;100.00
18436;BME280;9346;52.006;4.720;2023-02-11T12:03:31;103478.25;;;10.47;100.00
18436;BME280;9346;52.006;4.720;2023-02-11T12:06:11;103482.72;;;10.54;100.00
18436;BME280;9346;52.006;4.720;2023-02-11T12:08:53;103484.84;;;10.59;100.00
18436;BME280;9346;52.006;4.720;2023-02-11T12:11:32;103481.88;;;10.60;100.00
18436;BME280;9346;52.006;4.720;2023-02-11T12:14:11;103480.59;;;10.63;100.00
18436;BME280;9346;52.006;4.720;2023-02-11T12:16:52;103475.06;;;10.63;100.00
18436;BME280;9346;52.006;4.720;2023-02-11T12:19:34;103479.75;;;10.62;100.00
18436;BME280;9346;52.006;4.720;2023-02-11T12:22:25;103483.13;;;10.64;100.00
18436;BME280;9346;52.006;4.720;2023-02-11T12:25:15;103470.00;;;10.66;100.00
18436;BME280;9346;52.006;4.720;2023-02-11T12:27:51;103474.03;;;10.70;100.00
18436;BME280;9346;52.006;4.720;2023-02-11T12:30:33;103473.59;;;10.73;100.00
18436;BME280;9346;52.006;4.720;2023-02-11T12:33:08;103470.44;;;10.76;100.00
18436;BME280;9346;52.006;4.720;2023-02-11T12:35:46;103472.97;;;10.78;100.00
18436;BME280;9346;52.006;4.720;2023-02-11T12:38:31;103473.63;;;10.80;100.00
18436;BME280;9346;52.006;4.720;2023-02-11T12:41:19;103474.22;;;10.82;100.00
18436;BME280;9346;52.006;4.720;2023-02-11T12:44:16;103478.72;;;10.83;100.00
18436;BME280;9346;52.006;4.720;2023-02-11T12:46:49;103475.09;;;10.82;100.00
18436;BME280;9346;52.006;4.720;2023-02-11T12:49:44;103471.69;;;10.87;100.00
18436;BME280;9346;52.006;4.720;2023-02-11T12:52:38;103456.84;;;10.88;100.00
18436;BME280;9346;52.006;4.720;2023-02-11T12:55:18;103463.00;;;10.90;100.00
18436;BME280;9346;52.006;4.720;2023-02-11T12:57:49;103470.00;;;10.92;100.00
18436;BME280;9346;52.006;4.720;2023-02-11T13:00:20;103474.22;;;10.95;100.00
18436;BME280;9346;52.006;4.720;2023-02-11T13:02:53;103458.31;;;10.97;100.00
18436;BME280;9346;52.006;4.720;2023-02-11T13:05:24;103464.50;;;10.99;100.00
18436;BME280;9346;52.006;4.720;2023-02-11T13:07:57;103460.66;;;11.00;100.00
18436;BME280;9346;52.006;4.720;2023-02-11T13:10:31;103455.53;;;11.03;100.00
18436;BME280;9346;52.006;4.720;2023-02-11T13:13:04;103454.72;;;11.03;100.00
18436;BME280;9346;52.006;4.720;2023-02-11T13:15:42;103456.41;;;11.04;100.00
18436;BME280;9346;52.006;4.720;2023-02-11T13:18:18;103460.00;;;11.04;100.00
18436;BME280;9346;52.006;4.720;2023-02-11T13:20:52;103451.53;;;11.06;100.00
18436;BME280;9346;52.006;4.720;2023-02-11T13:23:25;103444.06;;;11.06;100.00
18436;BME280;9346;52.006;4.720;2023-02-11T13:26:01;103441.75;;;11.10;100.00
18436;BME280;9346;52.006;4.720;2023-02-11T13:28:39;103438.13;;;11.09;100.00
18436;BME280;9346;52.006;4.720;2023-02-11T13:31:09;103445.59;;;11.09;100.00
18436;BME280;9346;52.006;4.720;2023-02-11T13:33:41;103444.50;;;11.10;100.00